Terminal Aerodrome Forecast
Issued by NWS

Home | Current Version | Previous Version | Text Only | Print | Product List | Glossary Off
Versions: 1 2 3 4 5 6 7 8 9 10 11 12 13 14 15 16 17 18 19 20 21 22 23 24 25 26 27 28 29 30 31 32 33 34 35 36 37 38 39 40 41 42 43 44 45 46 47 48 49 50

822
FTUS43 KGRB 160409 AAA
TAFATW
TAF AMD
KATW 160409Z 1604/1624 VRB03KT P6SM -SN BKN025
      TEMPO 1604/1608 3SM -SN BKN015
     FM160800 05008KT 3SM -SN SCT018 OVC025
      TEMPO 1608/1612 1 1/2SM -SN OVC015
     FM161600 05009KT 6SM -SN OVC015
     FM162000 07008KT P6SM OVC015
     FM162300 08007KT P6SM OVC020=

USA.gov is the U.S. government's official web portal to all federal, state and local government web resources and services.